createdAt,value
2022-12-08T00:01:19.350Z,10.65
2022-12-08T00:03:47.632Z,9.90
2022-12-08T00:06:43.848Z,11.15
2022-12-08T00:09:23.805Z,10.55
2022-12-08T00:11:53.218Z,9.83
2022-12-08T00:14:21.016Z,11.27
2022-12-08T00:16:48.592Z,10.52
2022-12-08T00:19:16.150Z,11.18
2022-12-08T00:21:43.707Z,12.10
2022-12-08T00:24:11.421Z,12.30
2022-12-08T00:26:40.352Z,11.52
2022-12-08T00:29:10.018Z,12.23
2022-12-08T00:31:41.032Z,11.63
2022-12-08T00:34:09.094Z,11.45
2022-12-08T00:36:36.674Z,11.95
2022-12-08T00:39:04.542Z,11.95
2022-12-08T00:41:49.886Z,12.02
2022-12-08T00:44:20.054Z,12.88
2022-12-08T00:46:48.966Z,11.10
2022-12-08T00:49:17.325Z,12.30
2022-12-08T00:51:45.212Z,11.45
2022-12-08T00:54:13.230Z,12.32
2022-12-08T00:56:40.826Z,11.95
2022-12-08T00:59:08.891Z,11.63
2022-12-08T01:01:38.343Z,12.10
2022-12-08T01:04:07.153Z,11.48
2022-12-08T01:06:35.595Z,10.93
2022-12-08T01:09:03.178Z,11.45
2022-12-08T01:11:30.744Z,11.10
2022-12-08T01:13:58.424Z,11.93
2022-12-08T01:16:27.820Z,10.50
2022-12-08T01:18:58.181Z,10.35
2022-12-08T01:21:25.917Z,9.75
2022-12-08T01:23:54.817Z,9.98
2022-12-08T01:26:22.702Z,9.17
2022-12-08T01:28:50.626Z,8.98
2022-12-08T01:31:20.749Z,9.82
2022-12-08T01:33:49.190Z,9.80
2022-12-08T01:36:22.584Z,9.10
2022-12-08T01:38:50.749Z,8.73
2022-12-08T01:41:20.249Z,9.07
2022-12-08T01:44:02.418Z,9.38
2022-12-08T01:46:31.616Z,8.20
2022-12-08T01:49:04.487Z,8.10
2022-12-08T01:51:36.502Z,8.50
2022-12-08T01:54:06.686Z,8.55
2022-12-08T01:56:42.676Z,7.72
2022-12-08T01:59:12.658Z,8.02
2022-12-08T02:01:40.757Z,7.90
2022-12-08T02:04:08.394Z,8.47
2022-12-08T02:06:42.681Z,7.80
2022-12-08T02:09:10.829Z,7.35
2022-12-08T02:11:38.448Z,7.75
2022-12-08T02:14:08.417Z,6.43
2022-12-08T02:16:43.874Z,6.77
2022-12-08T02:19:42.153Z,6.78
2022-12-08T02:22:15.241Z,6.50
2022-12-08T02:24:50.879Z,6.10
2022-12-08T02:27:41.541Z,5.32
2022-12-08T02:30:25.598Z,5.55
2022-12-08T02:33:25.150Z,5.30
2022-12-08T02:36:00.868Z,5.63
2022-12-08T02:38:38.128Z,5.10
2022-12-08T02:41:17.972Z,4.88
2022-12-08T02:43:48.447Z,4.53
2022-12-08T02:46:22.870Z,4.90
2022-12-08T02:48:52.372Z,4.80
2022-12-08T02:51:21.219Z,5.70
2022-12-08T02:53:49.710Z,5.25
2022-12-08T02:56:35.959Z,5.20
2022-12-08T02:59:14.477Z,5.03
2022-12-08T03:02:06.729Z,4.82
2022-12-08T03:04:42.306Z,5.00
2022-12-08T03:07:16.088Z,4.93
2022-12-08T03:09:48.234Z,5.10
2022-12-08T03:12:21.275Z,5.05
2022-12-08T03:14:54.181Z,5.10
2022-12-08T03:17:24.545Z,4.93
2022-12-08T03:19:53.318Z,4.72
2022-12-08T03:22:25.533Z,4.50
2022-12-08T03:24:53.762Z,4.75
2022-12-08T03:27:24.831Z,4.18
2022-12-08T03:29:55.019Z,4.40
2022-12-08T03:32:27.452Z,4.88
2022-12-08T03:34:56.918Z,4.45
2022-12-08T03:37:27.880Z,4.53
2022-12-08T03:39:55.589Z,4.47
2022-12-08T03:42:23.296Z,4.15
2022-12-08T03:44:50.790Z,4.05
2022-12-08T03:47:18.345Z,4.03
2022-12-08T03:49:45.927Z,4.18
2022-12-08T03:52:13.486Z,4.22
2022-12-08T03:54:42.393Z,4.15
2022-12-08T03:57:10.060Z,3.97
2022-12-08T03:59:37.612Z,4.00
2022-12-08T04:02:05.224Z,4.00
2022-12-08T04:04:32.930Z,4.07
2022-12-08T04:07:00.426Z,3.50
2022-12-08T04:09:27.925Z,3.90
2022-12-08T04:11:56.765Z,3.73
2022-12-08T04:14:24.330Z,3.60
2022-12-08T04:16:51.855Z,3.80
2022-12-08T04:19:19.677Z,3.88
2022-12-08T04:21:47.193Z,3.67
2022-12-08T04:24:14.767Z,3.70
2022-12-08T04:26:42.358Z,4.03
2022-12-08T04:29:11.246Z,4.00
2022-12-08T04:31:38.886Z,4.00
2022-12-08T04:34:06.446Z,3.85
2022-12-08T04:36:34.069Z,3.83
2022-12-08T04:39:01.914Z,3.70
2022-12-08T04:41:29.453Z,3.55
2022-12-08T04:43:56.947Z,3.50
2022-12-08T04:46:25.898Z,3.70
2022-12-08T04:48:53.536Z,3.40
2022-12-08T04:51:21.650Z,3.30
2022-12-08T04:53:49.273Z,3.08
2022-12-08T04:56:18.841Z,3.28
2022-12-08T04:58:46.644Z,3.25
2022-12-08T05:01:15.226Z,3.10
2022-12-08T05:03:44.137Z,3.25
2022-12-08T05:06:13.300Z,2.88
2022-12-08T05:08:40.856Z,3.00
2022-12-08T05:11:10.299Z,3.00
2022-12-08T05:13:37.850Z,2.97
2022-12-08T05:16:06.687Z,3.13
2022-12-08T05:18:34.731Z,2.90
2022-12-08T05:21:04.545Z,3.50
2022-12-08T05:23:32.132Z,3.67
2022-12-08T05:25:59.674Z,3.30
2022-12-08T05:28:43.927Z,3.20
2022-12-08T05:31:12.746Z,3.25
2022-12-08T05:33:41.252Z,3.20
2022-12-08T05:36:11.034Z,3.17
2022-12-08T05:38:38.643Z,2.80
2022-12-08T05:41:06.962Z,2.60
2022-12-08T05:43:34.665Z,2.75
2022-12-08T05:46:02.372Z,2.42
2022-12-08T05:48:30.020Z,2.55
2022-12-08T05:50:57.683Z,3.00
2022-12-08T05:53:26.751Z,4.28
2022-12-08T05:55:54.438Z,3.50
2022-12-08T05:58:23.927Z,3.50
2022-12-08T06:00:51.828Z,8.63
2022-12-08T06:03:20.621Z,3.60
2022-12-08T06:05:48.909Z,4.82
2022-12-08T06:08:16.624Z,3.40
2022-12-08T06:10:46.208Z,3.33
2022-12-08T06:13:13.915Z,2.22
2022-12-08T06:15:42.214Z,2.30
2022-12-08T06:18:11.524Z,2.10
2022-12-08T06:20:39.069Z,2.10
2022-12-08T06:23:06.570Z,2.10
2022-12-08T06:25:34.084Z,2.28
2022-12-08T06:28:05.229Z,2.20
2022-12-08T06:30:32.796Z,2.30
2022-12-08T06:33:00.374Z,2.15
2022-12-08T06:35:27.965Z,2.38
2022-12-08T06:37:55.503Z,2.70
2022-12-08T06:40:23.057Z,2.30
2022-12-08T06:42:50.606Z,2.42
2022-12-08T06:45:19.637Z,2.75
2022-12-08T06:47:47.224Z,2.90
2022-12-08T06:50:15.627Z,3.55
2022-12-08T06:52:54.243Z,3.25
2022-12-08T06:55:51.252Z,3.35
2022-12-08T06:58:14.860Z,3.00
2022-12-08T07:00:43.981Z,4.13
2022-12-08T07:03:12.801Z,3.47
2022-12-08T07:05:40.423Z,3.20
2022-12-08T07:08:10.012Z,3.35
2022-12-08T07:10:37.955Z,4.35
2022-12-08T07:13:05.780Z,3.70
2022-12-08T07:15:33.311Z,4.15
2022-12-08T07:18:02.203Z,5.20
2022-12-08T07:20:29.802Z,5.43
2022-12-08T07:22:57.423Z,4.68
2022-12-08T07:25:25.014Z,4.90
2022-12-08T07:27:53.232Z,4.25
2022-12-08T07:30:21.041Z,4.20
2022-12-08T07:32:48.617Z,4.10
2022-12-08T07:35:17.782Z,4.32
2022-12-08T07:37:45.345Z,4.00
2022-12-08T07:40:14.342Z,4.20
2022-12-08T07:42:41.891Z,3.97
2022-12-08T07:45:10.455Z,3.80
2022-12-08T07:47:38.015Z,4.65
2022-12-08T07:50:06.986Z,6.43
2022-12-08T07:52:36.475Z,5.18
2022-12-08T07:55:04.198Z,4.90
2022-12-08T07:57:31.752Z,4.38
2022-12-08T08:00:02.146Z,4.90
2022-12-08T08:02:39.432Z,4.47
2022-12-08T08:05:08.038Z,5.47
2022-12-08T08:07:37.220Z,5.00
2022-12-08T08:10:06.736Z,4.60
2022-12-08T08:12:34.448Z,5.00
2022-12-08T08:15:03.113Z,6.88
2022-12-08T08:17:30.843Z,10.38
2022-12-08T08:19:58.632Z,5.83
2022-12-08T08:22:26.609Z,5.53
2022-12-08T08:24:55.729Z,5.07
2022-12-08T08:27:23.516Z,5.45
2022-12-08T08:29:51.013Z,5.32
2022-12-08T08:32:18.592Z,5.23
2022-12-08T08:34:46.163Z,5.90
2022-12-08T08:37:13.825Z,4.85
2022-12-08T08:39:42.916Z,5.57
2022-12-08T08:42:11.841Z,5.25
2022-12-08T08:44:39.901Z,5.60
2022-12-08T08:47:07.802Z,5.68
2022-12-08T08:49:36.843Z,5.30
2022-12-08T08:52:05.335Z,5.85
2022-12-08T08:54:33.585Z,5.50
2022-12-08T08:57:02.095Z,5.47
2022-12-08T08:59:31.185Z,6.13
2022-12-08T09:01:58.863Z,5.30
2022-12-08T09:04:26.579Z,5.32
2022-12-08T09:06:54.192Z,5.40
2022-12-08T09:09:21.799Z,7.63
2022-12-08T09:11:49.381Z,6.53
2022-12-08T09:14:17.012Z,5.15
2022-12-08T09:16:45.986Z,5.30
2022-12-08T09:19:13.613Z,5.10
2022-12-08T09:21:41.407Z,5.60
2022-12-08T09:24:15.360Z,4.93
2022-12-08T09:26:44.338Z,5.45
2022-12-08T09:29:13.623Z,5.35
2022-12-08T09:31:41.413Z,5.50
2022-12-08T09:34:11.549Z,5.17
2022-12-08T09:36:39.201Z,5.10
2022-12-08T09:39:06.796Z,5.28
2022-12-08T09:41:43.267Z,5.05
2022-12-08T09:44:34.179Z,5.95
2022-12-08T09:47:04.887Z,5.57
2022-12-08T09:49:39.741Z,5.03
2022-12-08T09:52:16.945Z,5.35
2022-12-08T09:54:44.553Z,6.15
2022-12-08T09:57:17.946Z,5.50
2022-12-08T09:59:50.801Z,6.10
2022-12-08T10:02:24.019Z,5.68
2022-12-08T10:04:55.834Z,5.72
2022-12-08T10:07:31.923Z,5.35
2022-12-08T10:10:06.791Z,5.82
2022-12-08T10:12:43.946Z,5.50
2022-12-08T10:15:31.614Z,5.85
2022-12-08T10:18:02.791Z,5.13
2022-12-08T10:20:41.877Z,5.57
2022-12-08T10:23:17.309Z,5.53
2022-12-08T10:25:48.140Z,4.70
2022-12-08T10:28:15.918Z,5.35
2022-12-08T10:30:43.616Z,5.28
2022-12-08T10:33:16.350Z,5.30
2022-12-08T10:35:47.766Z,5.50
2022-12-08T10:38:20.090Z,5.17
2022-12-08T10:40:49.247Z,5.50
2022-12-08T10:43:20.170Z,5.25
2022-12-08T10:45:47.755Z,5.35
2022-12-08T10:48:19.034Z,5.13
2022-12-08T10:50:54.124Z,5.93
2022-12-08T10:53:24.665Z,5.88
2022-12-08T10:55:54.127Z,5.25
2022-12-08T10:58:35.490Z,5.38
2022-12-08T11:01:07.100Z,5.07
2022-12-08T11:03:38.459Z,5.40
2022-12-08T11:06:17.274Z,4.85
2022-12-08T11:08:49.013Z,5.05
2022-12-08T11:11:17.116Z,5.45
2022-12-08T11:13:44.744Z,4.93
2022-12-08T11:16:15.650Z,4.90
2022-12-08T11:18:46.921Z,5.00
2022-12-08T11:21:18.197Z,4.85
2022-12-08T11:23:49.187Z,5.13
2022-12-08T11:26:25.177Z,5.13
2022-12-08T11:28:53.065Z,4.90
2022-12-08T11:31:30.164Z,5.20
2022-12-08T11:33:58.132Z,5.07
2022-12-08T11:36:32.855Z,5.35
2022-12-08T11:39:04.214Z,5.88
2022-12-08T11:41:38.278Z,5.60
2022-12-08T11:44:14.144Z,4.97
2022-12-08T11:46:48.225Z,5.07
2022-12-08T11:49:18.030Z,5.13
2022-12-08T11:51:51.974Z,4.78
2022-12-08T11:54:25.169Z,4.50
2022-12-08T11:56:55.550Z,4.60
2022-12-08T11:59:30.046Z,4.40
2022-12-08T12:01:59.209Z,4.72
2022-12-08T12:04:33.198Z,4.75
2022-12-08T12:07:29.354Z,4.67
2022-12-08T12:10:10.156Z,4.93
2022-12-08T12:12:56.727Z,5.40
2022-12-08T12:15:44.424Z,4.47
2022-12-08T12:18:23.121Z,4.55
2022-12-08T12:20:54.340Z,4.27
2022-12-08T12:23:29.631Z,4.35
2022-12-08T12:26:02.092Z,4.05
2022-12-08T12:28:40.219Z,6.97
2022-12-08T12:31:10.992Z,4.80
2022-12-08T12:33:38.756Z,3.90
2022-12-08T12:36:08.855Z,4.30
2022-12-08T12:38:57.618Z,4.40
2022-12-08T12:41:28.888Z,4.13
2022-12-08T12:44:44.136Z,4.03
2022-12-08T12:47:15.046Z,3.87
2022-12-08T12:50:08.279Z,4.20
2022-12-08T12:52:46.720Z,4.55
2022-12-08T12:55:52.883Z,4.20
2022-12-08T12:58:37.255Z,4.30
2022-12-08T13:01:42.138Z,4.20
2022-12-08T13:04:10.791Z,4.00
2022-12-08T13:06:42.376Z,4.20
2022-12-08T13:09:29.678Z,4.45
2022-12-08T13:12:00.636Z,4.40
2022-12-08T13:14:32.610Z,4.97
2022-12-08T13:17:02.604Z,4.32
2022-12-08T13:19:36.482Z,3.78
2022-12-08T13:22:04.090Z,3.97
2022-12-08T13:24:35.434Z,4.25
2022-12-08T13:27:34.580Z,3.97
2022-12-08T13:30:44.006Z,3.85
2022-12-08T13:33:18.374Z,4.13
2022-12-08T13:35:54.208Z,3.90
2022-12-08T13:38:23.518Z,3.92
2022-12-08T13:40:51.940Z,4.20
2022-12-08T13:43:43.493Z,4.20
2022-12-08T13:57:38.875Z,3.90
2022-12-08T14:00:15.766Z,4.28
2022-12-08T14:02:48.530Z,4.03
2022-12-08T14:05:21.694Z,4.30
2022-12-08T14:07:57.284Z,4.30
2022-12-08T14:10:29.169Z,4.30
2022-12-08T14:13:00.723Z,4.22
2022-12-08T14:15:34.032Z,5.10
2022-12-08T14:18:07.114Z,4.90
2022-12-08T14:20:57.859Z,4.40
2022-12-08T14:23:23.658Z,4.20
2022-12-08T14:25:51.219Z,4.32
2022-12-08T14:28:19.148Z,4.88
2022-12-08T14:30:49.603Z,12.02
2022-12-08T14:33:18.851Z,7.90
2022-12-08T14:35:51.747Z,6.18
2022-12-08T14:38:21.095Z,5.68
2022-12-08T14:40:49.847Z,11.13
2022-12-08T14:43:19.306Z,11.20
2022-12-08T14:45:53.222Z,6.37
2022-12-08T14:48:26.967Z,5.70
2022-12-08T14:51:05.455Z,5.93
2022-12-08T14:53:39.881Z,5.97
2022-12-08T14:56:18.627Z,5.65
2022-12-08T14:58:47.061Z,5.90
2022-12-08T15:01:16.962Z,6.20
2022-12-08T15:03:50.860Z,6.22
2022-12-08T15:06:22.314Z,6.25
2022-12-08T15:08:58.535Z,6.03
2022-12-08T15:11:33.051Z,6.03
2022-12-08T15:14:00.842Z,6.65
2022-12-08T15:16:31.884Z,6.90
2022-12-08T15:19:09.750Z,7.45
2022-12-08T15:21:41.124Z,7.35
2022-12-08T15:24:12.252Z,6.63
2022-12-08T15:26:44.678Z,7.07
2022-12-08T15:29:14.996Z,6.68
2022-12-08T15:31:42.572Z,7.10
2022-12-08T15:34:11.494Z,7.03
2022-12-08T15:36:39.959Z,6.77
2022-12-08T15:39:11.703Z,6.80
2022-12-08T15:41:39.196Z,6.68
2022-12-08T15:44:06.770Z,7.07
2022-12-08T15:46:34.348Z,7.13
2022-12-08T15:49:02.642Z,7.10
2022-12-08T15:51:36.327Z,7.40
2022-12-08T15:54:03.954Z,7.00
2022-12-08T15:56:34.235Z,7.85
2022-12-08T15:59:01.868Z,7.18
2022-12-08T16:01:29.422Z,8.83
2022-12-08T16:04:37.007Z,8.88
2022-12-08T16:09:39.265Z,9.02
2022-12-08T16:12:48.365Z,9.73
2022-12-08T16:18:06.334Z,9.20
2022-12-08T16:23:41.706Z,8.63
2022-12-08T16:29:00.606Z,9.90
2022-12-08T16:31:28.201Z,9.75
2022-12-08T16:33:55.797Z,7.82
2022-12-08T16:36:23.350Z,8.10
2022-12-08T16:38:52.175Z,7.88
2022-12-08T16:41:37.196Z,8.03
2022-12-08T16:44:06.664Z,8.13
2022-12-08T16:46:34.713Z,8.43
2022-12-08T16:49:02.249Z,9.77
2022-12-08T16:51:29.768Z,9.23
2022-12-08T16:53:58.821Z,9.03
2022-12-08T16:56:32.546Z,8.15
2022-12-08T16:59:01.035Z,9.00
2022-12-08T17:01:28.730Z,9.55
2022-12-08T17:06:43.950Z,9.07
2022-12-08T17:09:12.894Z,8.65
2022-12-08T17:11:43.350Z,8.35
2022-12-08T17:14:11.943Z,7.82
2022-12-08T17:16:39.560Z,7.30
2022-12-08T17:19:07.137Z,7.50
2022-12-08T17:21:34.876Z,7.60
2022-12-08T17:24:02.556Z,8.13
2022-12-08T17:26:31.444Z,7.60
2022-12-08T17:29:01.035Z,7.80
2022-12-08T17:31:31.032Z,7.83
2022-12-08T17:33:59.379Z,6.75
2022-12-08T17:36:26.961Z,7.55
2022-12-08T17:38:54.592Z,7.18
2022-12-08T17:41:22.167Z,8.48
2022-12-08T17:43:51.018Z,8.57
2022-12-08T17:46:18.874Z,8.35
2022-12-08T17:48:46.465Z,8.18
2022-12-08T17:51:14.020Z,7.90
2022-12-08T17:53:41.706Z,9.45
2022-12-08T17:56:16.436Z,9.83
2022-12-08T17:58:44.905Z,9.63
2022-12-08T18:01:14.630Z,9.05
2022-12-08T18:03:42.263Z,8.70
2022-12-08T18:06:12.366Z,9.13
2022-12-08T18:08:40.584Z,8.90
2022-12-08T18:11:13.019Z,9.55
2022-12-08T18:13:40.901Z,9.80
2022-12-08T18:16:08.649Z,9.57
2022-12-08T18:18:37.513Z,11.35
2022-12-08T18:21:05.372Z,10.47
2022-12-08T18:23:32.981Z,10.30
2022-12-08T18:26:00.512Z,11.85
2022-12-08T18:28:28.114Z,10.75
2022-12-08T18:30:55.665Z,11.63
2022-12-08T18:33:23.243Z,11.60
2022-12-08T18:35:52.230Z,11.80
2022-12-08T18:38:19.919Z,10.57
2022-12-08T18:40:47.429Z,11.10
2022-12-08T18:43:14.944Z,11.70
2022-12-08T18:45:42.549Z,11.20
2022-12-08T18:48:10.083Z,11.10
2022-12-08T18:50:37.722Z,10.68
2022-12-08T18:53:06.570Z,11.05
2022-12-08T18:55:34.062Z,11.55
2022-12-08T18:58:01.571Z,11.83
2022-12-08T19:00:29.159Z,12.88
2022-12-08T19:02:56.709Z,12.32
2022-12-08T19:05:24.243Z,11.60
2022-12-08T19:07:52.064Z,10.30
2022-12-08T19:10:21.121Z,10.97
2022-12-08T19:12:50.576Z,11.70
2022-12-08T19:15:18.118Z,11.73
2022-12-08T19:17:45.762Z,12.30
2022-12-08T19:20:14.409Z,12.48
2022-12-08T19:22:41.897Z,13.03
2022-12-08T19:25:09.796Z,13.63
2022-12-08T19:27:38.635Z,11.80
2022-12-08T19:30:07.766Z,11.50
2022-12-08T19:32:35.655Z,10.43
2022-12-08T19:35:07.035Z,12.40
2022-12-08T19:37:34.614Z,12.57
2022-12-08T19:40:19.948Z,13.52
2022-12-08T19:43:06.379Z,13.38
2022-12-08T19:45:36.290Z,16.58
2022-12-08T19:48:04.032Z,17.90
2022-12-08T19:50:37.824Z,13.88
2022-12-08T19:53:07.122Z,12.15
2022-12-08T19:55:34.842Z,13.82
2022-12-08T19:58:04.806Z,15.45
2022-12-08T20:00:33.744Z,14.90
2022-12-08T20:03:02.695Z,12.25
2022-12-08T20:05:32.055Z,11.35
2022-12-08T20:08:00.283Z,11.35
2022-12-08T20:10:30.184Z,11.55
2022-12-08T20:13:17.894Z,11.03
2022-12-08T20:15:47.291Z,11.35
2022-12-08T20:18:15.961Z,12.63
2022-12-08T20:20:44.888Z,12.40
2022-12-08T20:23:12.893Z,13.68
2022-12-08T20:25:41.425Z,11.97
2022-12-08T20:28:09.331Z,12.43
2022-12-08T20:30:39.824Z,12.10
2022-12-08T20:33:08.950Z,13.23
2022-12-08T20:35:36.570Z,12.68
2022-12-08T20:38:04.140Z,11.47
2022-12-08T20:40:31.742Z,12.82
2022-12-08T20:42:59.346Z,13.35
2022-12-08T20:45:26.894Z,13.57
2022-12-08T20:47:54.458Z,14.13
2022-12-08T20:50:23.358Z,14.53
2022-12-08T20:52:50.949Z,14.32
2022-12-08T20:55:18.830Z,13.98
2022-12-08T20:57:46.342Z,12.05
2022-12-08T21:00:14.812Z,12.30
2022-12-08T21:02:48.548Z,15.17
2022-12-08T21:05:19.143Z,19.30
2022-12-08T21:07:48.436Z,17.77
2022-12-08T21:10:16.202Z,17.08
2022-12-08T21:12:43.979Z,17.42
2022-12-08T21:15:13.211Z,15.20
2022-12-08T21:17:41.003Z,13.98
2022-12-08T21:20:09.628Z,13.27
2022-12-08T21:22:37.730Z,13.10
2022-12-08T21:25:10.149Z,12.38
2022-12-08T21:27:38.751Z,11.43
2022-12-08T21:30:08.116Z,11.38
2022-12-08T21:32:35.922Z,11.63
2022-12-08T21:35:03.771Z,13.73
2022-12-08T21:37:31.377Z,13.32
2022-12-08T21:39:59.049Z,13.90
2022-12-08T21:42:46.415Z,14.50
2022-12-08T21:45:15.957Z,12.23
2022-12-08T21:47:44.822Z,14.57
2022-12-08T21:50:13.044Z,13.52
2022-12-08T21:52:42.180Z,13.37
2022-12-08T21:55:12.171Z,13.38
2022-12-08T21:57:41.428Z,13.05
2022-12-08T22:00:14.381Z,13.43
2022-12-08T22:02:42.378Z,12.73
2022-12-08T22:05:11.132Z,13.20
2022-12-08T22:07:40.732Z,12.50
2022-12-08T22:10:10.409Z,12.88
2022-12-08T22:12:39.613Z,13.50
2022-12-08T22:15:10.698Z,12.32
2022-12-08T22:17:40.156Z,12.60
2022-12-08T22:20:11.611Z,12.27
2022-12-08T22:22:40.068Z,12.98
2022-12-08T22:25:10.961Z,14.07
2022-12-08T22:27:39.290Z,12.80
2022-12-08T22:30:10.320Z,12.13
2022-12-08T22:32:38.545Z,12.48
2022-12-08T22:35:06.877Z,12.02
2022-12-08T22:37:34.406Z,13.02
2022-12-08T22:40:02.030Z,12.77
2022-12-08T22:42:29.591Z,12.43
2022-12-08T22:44:57.240Z,14.10
2022-12-08T22:47:26.066Z,12.23
2022-12-08T22:49:53.621Z,12.73
2022-12-08T22:52:21.283Z,14.43
2022-12-08T22:54:48.980Z,12.50
2022-12-08T22:57:16.551Z,12.82
2022-12-08T22:59:44.253Z,12.93
2022-12-08T23:02:11.972Z,13.38
2022-12-08T23:04:41.199Z,12.80
2022-12-08T23:07:08.902Z,13.48
2022-12-08T23:09:36.415Z,13.05
2022-12-08T23:12:04.712Z,12.88
2022-12-08T23:14:32.362Z,13.63
2022-12-08T23:17:00.988Z,13.07
2022-12-08T23:19:28.751Z,14.80
2022-12-08T23:21:57.830Z,13.65
2022-12-08T23:24:25.453Z,14.13
2022-12-08T23:26:53.141Z,13.43
2022-12-08T23:29:20.666Z,12.38
2022-12-08T23:31:48.288Z,11.05
2022-12-08T23:34:15.967Z,11.82
2022-12-08T23:36:43.456Z,10.88
2022-12-08T23:39:12.801Z,10.85
2022-12-08T23:41:40.482Z,10.48
2022-12-08T23:44:09.108Z,10.73
2022-12-08T23:46:36.938Z,10.70
2022-12-08T23:49:05.009Z,10.23
2022-12-08T23:51:32.561Z,9.50
2022-12-08T23:54:00.265Z,10.30
2022-12-08T23:56:30.611Z,10.52
2022-12-08T23:58:58.558Z,10.85
